createdAt,value
2018-02-25T00:01:21.937Z,63.20
2018-02-25T00:03:49.446Z,63.20
2018-02-25T00:06:17.029Z,62.90
2018-02-25T00:08:44.556Z,63.00
2018-02-25T00:11:12.840Z,62.80
2018-02-25T00:13:40.351Z,62.80
2018-02-25T00:16:07.850Z,63.00
2018-02-25T00:18:36.147Z,62.80
2018-02-25T00:21:03.653Z,62.80
2018-02-25T00:23:31.153Z,62.60
2018-02-25T00:25:58.742Z,62.80
2018-02-25T00:28:26.261Z,62.50
2018-02-25T00:30:54.526Z,62.30
2018-02-25T00:33:22.041Z,62.30
2018-02-25T00:35:49.537Z,62.50
2018-02-25T00:38:17.029Z,62.60
2018-02-25T00:40:44.552Z,62.40
2018-02-25T00:43:12.193Z,62.30
2018-02-25T00:45:39.699Z,62.30
2018-02-25T00:48:07.988Z,62.00
2018-02-25T00:50:36.254Z,62.20
2018-02-25T00:53:04.542Z,62.20
2018-02-25T00:55:32.804Z,62.40
2018-02-25T00:58:00.308Z,62.40
2018-02-25T01:00:27.828Z,62.20
2018-02-25T01:02:55.357Z,62.60
2018-02-25T01:05:22.881Z,62.40
2018-02-25T01:07:50.417Z,62.80
2018-02-25T01:10:18.018Z,62.20
2018-02-25T01:12:46.285Z,62.70
2018-02-25T01:15:13.810Z,62.60
2018-02-25T01:17:41.317Z,62.40
2018-02-25T01:20:08.829Z,62.70
2018-02-25T01:22:37.113Z,62.40
2018-02-25T01:25:04.620Z,62.30
2018-02-25T01:27:32.146Z,62.70
2018-02-25T01:29:59.679Z,62.50
2018-02-25T01:32:27.225Z,62.70
2018-02-25T01:34:54.779Z,62.90
2018-02-25T01:37:22.299Z,62.60
2018-02-25T01:39:49.810Z,62.90
2018-02-25T01:42:17.310Z,62.90
2018-02-25T01:44:44.827Z,63.20
2018-02-25T01:47:12.356Z,62.80
2018-02-25T01:49:39.884Z,63.00
2018-02-25T01:52:08.157Z,63.10
2018-02-25T01:54:36.437Z,62.90
2018-02-25T01:57:03.942Z,62.80
2018-02-25T01:59:31.485Z,63.10
2018-02-25T02:01:59.039Z,62.80
2018-02-25T02:04:26.539Z,62.70
2018-02-25T02:06:54.042Z,63.20
2018-02-25T02:09:21.559Z,62.70
2018-02-25T02:11:49.076Z,62.90
2018-02-25T02:14:16.586Z,63.40
2018-02-25T02:16:44.132Z,62.90
2018-02-25T02:19:11.643Z,62.70
2018-02-25T02:21:39.141Z,63.10
2018-02-25T02:24:06.660Z,63.40
2018-02-25T02:26:34.180Z,63.30
2018-02-25T02:29:01.705Z,63.30
2018-02-25T02:31:29.244Z,63.40
2018-02-25T02:33:56.740Z,63.70
2018-02-25T02:36:24.275Z,63.60
2018-02-25T02:38:51.816Z,63.60
2018-02-25T02:41:19.353Z,63.70
2018-02-25T02:43:46.912Z,63.50
2018-02-25T02:46:14.436Z,63.60
2018-02-25T02:48:41.945Z,63.70
2018-02-25T02:51:10.240Z,64.10
2018-02-25T02:53:37.748Z,64.10
2018-02-25T02:56:05.249Z,63.90
2018-02-25T02:58:33.542Z,64.00
2018-02-25T03:01:01.056Z,64.00
2018-02-25T03:03:28.577Z,64.20
2018-02-25T03:05:56.138Z,64.00
2018-02-25T03:08:23.632Z,64.20
2018-02-25T03:10:51.162Z,64.10
2018-02-25T03:13:18.660Z,64.50
2018-02-25T03:15:46.193Z,64.50
2018-02-25T03:18:13.710Z,64.30
2018-02-25T03:20:41.211Z,64.30
2018-02-25T03:23:08.741Z,64.60
2018-02-25T03:25:36.276Z,64.60
2018-02-25T03:28:04.555Z,64.70
2018-02-25T03:30:32.851Z,64.80
2018-02-25T03:33:00.389Z,64.80
2018-02-25T03:35:27.910Z,64.80
2018-02-25T03:37:55.465Z,64.90
2018-02-25T03:40:22.978Z,65.10
2018-02-25T03:42:50.492Z,65.20
2018-02-25T03:45:18.029Z,64.90
2018-02-25T03:47:46.314Z,65.40
2018-02-25T03:50:13.812Z,65.30
2018-02-25T03:52:41.338Z,65.20
2018-02-25T03:55:08.939Z,65.30
2018-02-25T03:57:37.313Z,65.30
2018-02-25T04:00:04.837Z,65.30
2018-02-25T04:02:32.349Z,65.40
2018-02-25T04:04:59.957Z,65.40
2018-02-25T04:07:27.450Z,65.80
2018-02-25T04:09:54.984Z,65.90
2018-02-25T04:12:22.474Z,65.80
2018-02-25T04:14:50.006Z,65.80
2018-02-25T04:17:17.514Z,66.00
2018-02-25T04:19:45.794Z,66.30
2018-02-25T04:22:13.342Z,66.20
2018-02-25T04:24:40.876Z,66.40
2018-02-25T04:27:08.432Z,66.80
2018-02-25T04:29:35.938Z,66.30
2018-02-25T04:32:03.451Z,66.30
2018-02-25T04:34:30.977Z,66.30
2018-02-25T04:36:58.495Z,66.30
2018-02-25T04:39:26.020Z,66.30
2018-02-25T04:41:53.571Z,66.40
2018-02-25T04:44:21.073Z,66.50
2018-02-25T04:46:48.632Z,66.50
2018-02-25T04:49:16.190Z,66.80
2018-02-25T04:51:43.733Z,66.60
2018-02-25T04:54:11.616Z,67.30
2018-02-25T04:56:39.242Z,67.20
2018-02-25T04:59:06.761Z,67.10
2018-02-25T05:01:35.118Z,67.30
2018-02-25T05:04:03.520Z,67.20
2018-02-25T05:06:31.821Z,67.60
2018-02-25T05:09:01.869Z,67.50
2018-02-25T05:11:30.227Z,67.80
2018-02-25T05:13:58.010Z,67.80
2018-02-25T05:16:25.654Z,67.70
2018-02-25T05:18:54.058Z,68.00
2018-02-25T05:21:21.694Z,68.00
2018-02-25T05:23:49.224Z,67.90
2018-02-25T05:26:16.810Z,68.00
2018-02-25T05:28:45.959Z,68.00
2018-02-25T05:31:14.735Z,68.00
2018-02-25T05:33:42.317Z,68.20
2018-02-25T05:36:11.204Z,68.10
2018-02-25T05:38:43.921Z,68.10
2018-02-25T05:41:14.940Z,68.20
2018-02-25T05:43:42.565Z,68.10
2018-02-25T05:46:10.720Z,68.20
2018-02-25T05:48:41.437Z,68.10
2018-02-25T05:51:09.888Z,68.10
2018-02-25T05:53:38.513Z,68.00
2018-02-25T05:56:07.165Z,67.90
2018-02-25T05:58:37.035Z,68.40
2018-02-25T06:01:10.475Z,69.30
2018-02-25T06:03:38.174Z,68.10
2018-02-25T06:06:06.498Z,68.00
2018-02-25T06:08:34.280Z,68.00
2018-02-25T06:11:02.153Z,68.30
2018-02-25T06:13:30.994Z,68.40
2018-02-25T06:16:04.450Z,68.10
2018-02-25T06:18:32.556Z,68.10
2018-02-25T06:21:00.942Z,68.40
2018-02-25T06:23:28.592Z,68.40
2018-02-25T06:26:02.381Z,68.80
2018-02-25T06:31:30.629Z,68.90
2018-02-25T06:34:07.647Z,68.40
2018-02-25T06:39:25.149Z,68.20
2018-02-25T06:41:54.202Z,68.30
2018-02-25T06:44:26.631Z,68.20
2018-02-25T06:46:59.537Z,67.90
2018-02-25T06:49:34.307Z,67.90
2018-02-25T06:52:04.040Z,67.90
2018-02-25T06:57:54.608Z,67.60
2018-02-25T07:00:22.144Z,67.70
2018-02-25T07:02:52.846Z,67.60
2018-02-25T07:05:21.294Z,67.70
2018-02-25T07:07:52.265Z,67.60
2018-02-25T07:10:28.413Z,67.40
2018-02-25T07:13:16.467Z,67.30
2018-02-25T07:15:54.585Z,67.30
2018-02-25T07:18:23.854Z,67.30
2018-02-25T07:20:51.706Z,67.20
2018-02-25T07:23:22.645Z,66.90
2018-02-25T07:25:50.247Z,66.60
2018-02-25T07:28:17.890Z,66.50
2018-02-25T07:30:45.436Z,66.10
2018-02-25T07:33:13.294Z,65.80
2018-02-25T07:35:44.031Z,64.40
2018-02-25T07:38:11.854Z,63.80
2018-02-25T07:40:42.107Z,63.40
2018-02-25T07:43:09.904Z,61.40
2018-02-25T07:45:37.568Z,60.60
2018-02-25T07:48:05.173Z,59.10
2018-02-25T07:50:32.795Z,58.10
2018-02-25T07:53:00.464Z,57.10
2018-02-25T07:55:28.421Z,56.60
2018-02-25T07:57:56.257Z,55.10
2018-02-25T08:00:24.083Z,54.00
2018-02-25T08:02:52.640Z,53.90
2018-02-25T08:05:22.342Z,53.80
2018-02-25T08:07:50.049Z,53.10
2018-02-25T08:10:26.270Z,51.10
2018-02-25T08:12:59.408Z,51.00
2018-02-25T08:15:29.579Z,50.50
2018-02-25T08:17:57.178Z,51.50
2018-02-25T08:20:25.616Z,50.60
2018-02-25T08:22:53.529Z,50.50
2018-02-25T08:25:22.023Z,48.60
2018-02-25T08:27:49.814Z,48.50
2018-02-25T08:30:17.416Z,49.30
2018-02-25T08:32:45.394Z,49.00
2018-02-25T08:35:13.224Z,50.30
2018-02-25T08:37:41.635Z,47.40
2018-02-25T08:40:13.890Z,48.00
2018-02-25T08:42:41.871Z,47.40
2018-02-25T08:45:09.660Z,47.10
2018-02-25T08:47:37.223Z,46.50
2018-02-25T08:50:05.544Z,46.80
2018-02-25T08:52:33.056Z,46.80
2018-02-25T08:55:00.593Z,45.70
2018-02-25T08:57:28.088Z,46.40
2018-02-25T08:59:56.369Z,45.20
2018-02-25T09:02:24.675Z,43.70
2018-02-25T09:04:52.193Z,43.80
2018-02-25T09:07:20.559Z,44.00
2018-02-25T09:09:49.048Z,44.00
2018-02-25T09:12:16.589Z,44.40
2018-02-25T09:14:44.090Z,43.00
2018-02-25T09:17:12.384Z,42.30
2018-02-25T09:19:40.022Z,42.30
2018-02-25T09:22:09.130Z,39.90
2018-02-25T09:24:37.909Z,40.80
2018-02-25T09:27:06.272Z,40.80
2018-02-25T09:29:33.846Z,40.40
2018-02-25T09:32:01.412Z,40.90
2018-02-25T09:34:29.695Z,41.00
2018-02-25T09:36:57.227Z,41.00
2018-02-25T09:39:24.791Z,39.70
2018-02-25T09:41:53.064Z,38.80
2018-02-25T09:44:20.886Z,38.10
2018-02-25T09:46:48.470Z,38.30
2018-02-25T09:49:16.138Z,38.80
2018-02-25T09:51:43.645Z,39.50
2018-02-25T09:54:11.392Z,38.40
2018-02-25T09:56:38.991Z,37.70
2018-02-25T09:59:06.510Z,37.50
2018-02-25T10:01:34.042Z,36.90
2018-02-25T10:04:02.130Z,38.20
2018-02-25T10:06:29.635Z,37.10
2018-02-25T10:08:58.570Z,35.70
2018-02-25T10:11:26.133Z,36.90
2018-02-25T10:13:53.691Z,35.40
2018-02-25T10:16:21.235Z,35.70
2018-02-25T10:18:48.726Z,35.10
2018-02-25T10:21:16.421Z,36.50
2018-02-25T10:23:44.700Z,35.40
2018-02-25T10:26:12.205Z,35.40
2018-02-25T10:28:39.724Z,36.30
2018-02-25T10:31:07.997Z,35.20
2018-02-25T10:33:35.557Z,35.10
2018-02-25T10:36:03.872Z,34.90
2018-02-25T10:38:31.402Z,34.90
2018-02-25T10:40:59.682Z,34.50
2018-02-25T10:43:27.245Z,34.50
2018-02-25T10:45:55.537Z,34.80
2018-02-25T10:48:23.049Z,34.80
2018-02-25T10:50:50.610Z,34.50
2018-02-25T10:53:18.117Z,34.30
2018-02-25T10:55:45.640Z,35.20
2018-02-25T10:58:13.202Z,33.60
2018-02-25T11:00:40.680Z,34.40
2018-02-25T11:03:08.961Z,34.10
2018-02-25T11:05:36.506Z,34.20
2018-02-25T11:08:04.780Z,32.20
2018-02-25T11:10:32.293Z,32.20
2018-02-25T11:12:59.816Z,34.20
2018-02-25T11:15:27.373Z,33.10
2018-02-25T11:17:54.845Z,32.50
2018-02-25T11:20:22.374Z,32.90
2018-02-25T11:22:49.936Z,31.10
2018-02-25T11:25:17.446Z,30.70
2018-02-25T11:27:44.951Z,30.70
2018-02-25T11:30:12.453Z,30.40
2018-02-25T11:32:39.962Z,30.70
2018-02-25T11:35:07.489Z,30.80
2018-02-25T11:37:35.026Z,30.50
2018-02-25T11:40:02.561Z,30.00
2018-02-25T11:42:30.064Z,30.10
2018-02-25T11:44:57.555Z,29.30
2018-02-25T11:47:25.236Z,30.20
2018-02-25T11:49:52.726Z,30.30
2018-02-25T11:52:20.279Z,29.20
2018-02-25T11:54:48.588Z,28.80
2018-02-25T11:57:16.085Z,28.80
2018-02-25T11:59:43.586Z,29.40
2018-02-25T12:02:11.096Z,29.90
2018-02-25T12:04:38.618Z,29.80
2018-02-25T12:07:06.158Z,28.10
2018-02-25T12:09:34.419Z,27.90
2018-02-25T12:12:02.697Z,28.70
2018-02-25T12:14:30.203Z,28.70
2018-02-25T12:16:57.720Z,29.60
2018-02-25T12:19:26.016Z,29.10
2018-02-25T12:21:53.516Z,29.00
2018-02-25T12:24:21.026Z,28.60
2018-02-25T12:26:49.341Z,29.90
2018-02-25T12:29:16.866Z,29.90
2018-02-25T12:31:45.150Z,28.60
2018-02-25T12:34:12.644Z,28.60
2018-02-25T12:36:40.152Z,28.60
2018-02-25T12:39:09.565Z,28.90
2018-02-25T12:41:37.085Z,28.80
2018-02-25T12:44:04.612Z,27.90
2018-02-25T12:46:32.140Z,28.70
2018-02-25T12:49:00.448Z,28.10
2018-02-25T12:51:27.960Z,28.00
2018-02-25T12:53:55.476Z,28.60
2018-02-25T12:56:22.994Z,29.00
2018-02-25T12:58:50.514Z,29.10
2018-02-25T13:01:18.067Z,28.20
2018-02-25T13:03:45.583Z,29.70
2018-02-25T13:06:13.213Z,29.50
2018-02-25T13:08:40.722Z,28.70
2018-02-25T13:11:08.245Z,28.70
2018-02-25T13:13:35.752Z,28.70
2018-02-25T13:16:03.278Z,28.20
2018-02-25T13:18:30.805Z,28.60
2018-02-25T13:20:58.324Z,28.80
2018-02-25T13:23:25.849Z,27.50
2018-02-25T13:25:53.355Z,27.50
2018-02-25T13:28:20.888Z,28.50
2018-02-25T13:30:48.386Z,28.00
2018-02-25T13:33:15.902Z,28.20
2018-02-25T13:35:43.464Z,28.30
2018-02-25T13:38:11.765Z,27.50
2018-02-25T13:40:39.329Z,27.50
2018-02-25T13:43:06.869Z,28.30
2018-02-25T13:45:34.368Z,28.80
2018-02-25T13:48:01.888Z,29.00
2018-02-25T13:50:29.428Z,28.90
2018-02-25T13:52:56.961Z,30.00
2018-02-25T13:55:24.470Z,30.70
2018-02-25T13:57:52.756Z,30.00
2018-02-25T14:00:20.269Z,30.00
2018-02-25T14:02:47.777Z,30.00
2018-02-25T14:05:15.295Z,30.30
2018-02-25T14:07:42.796Z,31.00
2018-02-25T14:10:10.318Z,31.20
2018-02-25T14:12:37.844Z,30.50
2018-02-25T14:15:05.349Z,30.60
2018-02-25T14:17:32.852Z,31.10
2018-02-25T14:20:00.360Z,30.50
2018-02-25T14:22:27.868Z,30.20
2018-02-25T14:24:55.374Z,30.60
2018-02-25T14:27:22.866Z,31.40
2018-02-25T14:29:50.360Z,31.00
2018-02-25T14:32:17.873Z,31.00
2018-02-25T14:34:45.378Z,31.40
2018-02-25T14:37:12.969Z,32.10
2018-02-25T14:39:40.468Z,31.80
2018-02-25T14:42:08.767Z,32.20
2018-02-25T14:44:36.319Z,32.10
2018-02-25T14:47:03.957Z,32.20
2018-02-25T14:49:31.510Z,32.40
2018-02-25T14:51:59.897Z,33.20
2018-02-25T14:54:28.369Z,33.10
2018-02-25T14:56:56.103Z,33.00
2018-02-25T14:59:23.742Z,31.50
2018-02-25T15:01:51.251Z,31.60
2018-02-25T15:04:18.816Z,33.10
2018-02-25T15:06:46.448Z,32.50
2018-02-25T15:09:14.055Z,33.20
2018-02-25T15:11:41.587Z,33.30
2018-02-25T15:14:09.145Z,34.70
2018-02-25T15:16:36.721Z,33.80
2018-02-25T15:19:04.345Z,33.80
2018-02-25T15:21:31.861Z,34.00
2018-02-25T15:24:00.150Z,35.20
2018-02-25T15:26:27.686Z,35.00
2018-02-25T15:28:55.207Z,34.50
2018-02-25T15:31:22.787Z,35.50
2018-02-25T15:33:50.319Z,35.00
2018-02-25T15:36:17.859Z,35.00
2018-02-25T15:38:45.396Z,35.30
2018-02-25T15:41:12.983Z,35.50
2018-02-25T15:43:40.600Z,35.70
2018-02-25T15:46:09.395Z,36.00
2018-02-25T15:48:37.003Z,35.90
2018-02-25T15:51:04.542Z,36.30
2018-02-25T15:53:32.044Z,36.90
2018-02-25T15:56:00.711Z,36.00
2018-02-25T15:58:28.232Z,36.50
2018-02-25T16:00:56.514Z,37.70
2018-02-25T16:03:24.925Z,38.60
2018-02-25T16:05:52.475Z,38.60
2018-02-25T16:08:20.781Z,38.90
2018-02-25T16:10:48.297Z,38.90
2018-02-25T16:13:15.866Z,38.70
2018-02-25T16:15:44.268Z,38.20
2018-02-25T16:18:11.857Z,38.20
2018-02-25T16:20:39.414Z,36.90
2018-02-25T16:23:06.942Z,36.40
2018-02-25T16:25:34.484Z,36.40
2018-02-25T16:28:02.071Z,37.20
2018-02-25T16:30:29.745Z,38.70
2018-02-25T16:32:57.364Z,41.80
2018-02-25T16:35:25.670Z,42.20
2018-02-25T16:37:53.171Z,42.20
2018-02-25T16:40:20.756Z,43.00
2018-02-25T16:42:48.238Z,43.60
2018-02-25T16:45:15.889Z,42.60
2018-02-25T16:47:44.342Z,43.50
2018-02-25T16:50:11.922Z,43.50
2018-02-25T16:52:39.438Z,43.20
2018-02-25T16:55:07.233Z,43.50
2018-02-25T16:57:34.784Z,44.40
2018-02-25T17:00:02.326Z,44.20
2018-02-25T17:02:29.882Z,44.10
2018-02-25T17:04:57.943Z,44.50
2018-02-25T17:07:25.490Z,44.40
2018-02-25T17:09:53.159Z,45.00
2018-02-25T17:12:20.766Z,45.20
2018-02-25T17:14:48.344Z,45.30
2018-02-25T17:17:15.943Z,45.60
2018-02-25T17:19:43.484Z,46.10
2018-02-25T17:22:11.965Z,46.60
2018-02-25T17:24:40.319Z,46.80
2018-02-25T17:27:10.712Z,46.80
2018-02-25T17:29:38.225Z,47.10
2018-02-25T17:32:05.746Z,47.40
2018-02-25T17:34:33.309Z,48.00
2018-02-25T17:37:00.854Z,48.20
2018-02-25T17:39:28.381Z,48.50
2018-02-25T17:41:56.673Z,49.30
2018-02-25T17:44:24.290Z,49.40
2018-02-25T17:46:51.917Z,49.40
2018-02-25T17:49:19.487Z,49.60
2018-02-25T17:51:46.998Z,49.50
2018-02-25T17:54:14.545Z,49.80
2018-02-25T17:56:42.073Z,50.10
2018-02-25T17:59:09.586Z,50.30
2018-02-25T18:01:37.116Z,50.40
2018-02-25T18:04:04.649Z,50.90
2018-02-25T18:06:32.211Z,50.90
2018-02-25T18:08:59.722Z,51.00
2018-02-25T18:11:28.013Z,50.80
2018-02-25T18:13:56.311Z,51.00
2018-02-25T18:16:23.834Z,51.00
2018-02-25T18:18:52.162Z,51.60
2018-02-25T18:21:19.688Z,51.60
2018-02-25T18:23:47.200Z,51.40
2018-02-25T18:26:14.737Z,51.60
2018-02-25T18:28:42.254Z,51.90
2018-02-25T18:31:09.760Z,51.90
2018-02-25T18:33:37.269Z,52.00
2018-02-25T18:36:05.601Z,51.80
2018-02-25T18:38:33.115Z,51.80
2018-02-25T18:41:01.418Z,52.40
2018-02-25T18:43:28.926Z,52.40
2018-02-25T18:45:56.494Z,52.00
2018-02-25T18:48:24.166Z,52.50
2018-02-25T18:50:51.857Z,52.40
2018-02-25T18:53:19.594Z,52.50
2018-02-25T18:55:47.236Z,53.30
2018-02-25T18:58:14.934Z,53.20
2018-02-25T19:00:43.279Z,54.10
2018-02-25T19:03:10.794Z,54.00
2018-02-25T19:05:39.188Z,54.10
2018-02-25T19:08:06.701Z,53.90
2018-02-25T19:10:34.335Z,53.90
2018-02-25T19:13:01.903Z,54.20
2018-02-25T19:15:29.440Z,54.50
2018-02-25T19:17:56.937Z,54.60
2018-02-25T19:20:24.460Z,54.90
2018-02-25T19:22:52.087Z,55.10
2018-02-25T19:25:19.582Z,55.20
2018-02-25T19:27:47.112Z,55.50
2018-02-25T19:30:14.624Z,55.70
2018-02-25T19:32:42.161Z,56.00
2018-02-25T19:35:09.680Z,56.20
2018-02-25T19:40:42.866Z,56.20
2018-02-25T19:43:10.601Z,56.70
2018-02-25T19:45:38.161Z,56.90
2018-02-25T19:48:05.713Z,56.90
2018-02-25T19:50:33.237Z,57.20
2018-02-25T19:53:00.770Z,57.30
2018-02-25T19:55:28.281Z,57.40
2018-02-25T19:57:55.820Z,57.40
2018-02-25T20:00:24.096Z,57.60
2018-02-25T20:02:52.419Z,57.60
2018-02-25T20:05:19.986Z,57.60
2018-02-25T20:07:47.569Z,58.00
2018-02-25T20:10:15.107Z,57.80
2018-02-25T20:12:42.708Z,57.80
2018-02-25T20:15:10.275Z,58.10
2018-02-25T20:17:37.787Z,58.10
2018-02-25T20:20:05.306Z,58.40
2018-02-25T20:22:33.580Z,58.80
2018-02-25T20:25:01.113Z,58.80
2018-02-25T20:27:28.624Z,58.90
2018-02-25T20:29:56.125Z,59.00
2018-02-25T20:32:23.663Z,59.20
2018-02-25T20:34:51.185Z,59.60
2018-02-25T20:37:19.545Z,59.40
2018-02-25T20:39:47.068Z,59.40
2018-02-25T20:42:14.610Z,59.50
2018-02-25T20:44:44.264Z,59.50
2018-02-25T20:47:11.854Z,59.50
2018-02-25T20:49:39.428Z,59.90
2018-02-25T20:52:06.990Z,60.20
2018-02-25T20:54:34.510Z,60.40
2018-02-25T20:57:02.291Z,60.40
2018-02-25T20:59:29.864Z,60.90
2018-02-25T21:01:58.169Z,60.90
2018-02-25T21:04:25.713Z,60.80
2018-02-25T21:06:53.420Z,61.10
2018-02-25T21:09:21.597Z,61.60
2018-02-25T21:11:50.089Z,61.90
2018-02-25T21:14:17.596Z,62.20
2018-02-25T21:16:45.272Z,62.40
2018-02-25T21:19:12.889Z,62.80
2018-02-25T21:21:40.400Z,62.90
2018-02-25T21:24:08.002Z,63.50
2018-02-25T21:26:35.510Z,64.10
2018-02-25T21:29:03.103Z,64.40
2018-02-25T21:31:30.805Z,64.80
2018-02-25T21:33:59.202Z,65.40
2018-02-25T21:36:27.508Z,65.70
2018-02-25T21:38:55.150Z,65.50
2018-02-25T21:41:22.648Z,66.00
2018-02-25T21:43:50.157Z,66.00
2018-02-25T21:46:17.783Z,66.50
2018-02-25T21:48:45.426Z,66.80
2018-02-25T21:51:12.989Z,66.90
2018-02-25T21:53:41.356Z,66.80
2018-02-25T21:56:14.584Z,66.70
2018-02-25T21:58:47.671Z,67.10
2018-02-25T22:01:20.811Z,67.50
2018-02-25T22:03:48.389Z,67.80
2018-02-25T22:06:15.909Z,68.10
2018-02-25T22:08:43.441Z,68.60
2018-02-25T22:11:11.139Z,68.60
2018-02-25T22:13:38.743Z,68.70
2018-02-25T22:16:07.023Z,69.50
2018-02-25T22:18:34.568Z,69.40
2018-02-25T22:21:02.061Z,69.50
2018-02-25T22:23:29.570Z,69.60
2018-02-25T22:25:57.123Z,70.10
2018-02-25T22:28:24.642Z,70.60
2018-02-25T22:30:52.166Z,71.10
2018-02-25T22:33:19.673Z,71.30
2018-02-25T22:35:47.179Z,71.60
2018-02-25T22:38:14.702Z,72.00
2018-02-25T22:40:42.214Z,72.40
2018-02-25T22:43:09.757Z,72.30
2018-02-25T22:45:37.258Z,72.80
2018-02-25T22:48:04.808Z,73.20
2018-02-25T22:50:32.318Z,73.50
2018-02-25T22:53:00.689Z,73.90
2018-02-25T22:55:28.967Z,74.20
2018-02-25T22:57:57.258Z,74.10
2018-02-25T23:00:24.771Z,74.00
2018-02-25T23:02:52.313Z,74.40
2018-02-25T23:05:20.604Z,74.90
2018-02-25T23:07:48.105Z,74.90
2018-02-25T23:10:15.701Z,75.20
2018-02-25T23:12:43.273Z,75.40
2018-02-25T23:15:10.835Z,75.60
2018-02-25T23:17:38.369Z,75.90
2018-02-25T23:20:05.909Z,76.20
2018-02-25T23:22:33.427Z,76.60
2018-02-25T23:25:00.966Z,76.90
2018-02-25T23:27:28.487Z,77.80
2018-02-25T23:29:56.782Z,77.70
2018-02-25T23:32:24.285Z,78.40
2018-02-25T23:34:51.797Z,78.30
2018-02-25T23:37:19.329Z,78.80
2018-02-25T23:39:46.836Z,79.00
2018-02-25T23:42:14.384Z,79.50
2018-02-25T23:44:41.948Z,79.70
2018-02-25T23:47:09.526Z,79.60
2018-02-25T23:49:37.025Z,79.90
2018-02-25T23:52:04.660Z,80.30
2018-02-25T23:54:32.178Z,80.50
2018-02-25T23:56:59.686Z,80.90
2018-02-25T23:59:27.205Z,80.80
